Time;durP1;ratioP1;P1;durP2;ratioP2;P2;SDS_P1;SDS_P2;PMS_P1;PMS_P2;Temp;Humidity;BMP_temperature;BMP_pressure;BME280_temperature;BME280_humidity;BME280_pressure;Samples;Min_cycle;Max_cycle;Signal;HPM_P1;HPM_P2
2023/02/17 00:01:25;;;;;;;32.60;19.85;;;;;;;13.29;53.00;101602.06;5098997;27;98824;-73
2023/02/17 00:03:53;;;;;;;35.10;21.40;;;;;;;13.42;53.20;101600.72;5105227;27;100854;-73
2023/02/17 00:06:22;;;;;;;34.85;19.45;;;;;;;13.45;53.68;101596.22;5101069;27;97687;-73
2023/02/17 00:08:49;;;;;;;36.20;21.90;;;;;;;13.37;54.40;101589.41;5104879;27;97295;-72
2023/02/17 00:11:17;;;;;;;38.97;21.88;;;;;;;13.20;55.47;101584.66;5100768;27;96854;-72
2023/02/17 00:13:44;;;;;;;33.90;20.45;;;;;;;13.34;55.29;101571.78;5098676;27;98960;-72
2023/02/17 00:16:13;;;;;;;38.70;22.30;;;;;;;13.30;55.79;101575.47;5097391;27;98763;-72
2023/02/17 00:18:39;;;;;;;36.67;22.02;;;;;;;13.04;56.89;101567.47;5100365;27;97301;-72
2023/02/17 00:21:14;;;;;;;39.42;22.80;;;;;;;13.07;56.90;101557.63;5107491;27;97134;-72
2023/02/17 00:23:41;;;;;;;34.70;22.02;;;;;;;13.10;56.87;101554.88;5099080;27;99565;-72
2023/02/17 00:26:08;;;;;;;36.63;22.42;;;;;;;13.10;57.05;101559.31;5099085;27;98861;-72
2023/02/17 00:28:36;;;;;;;39.35;22.50;;;;;;;12.91;57.42;101550.22;5099017;27;96817;-73
2023/02/17 00:31:06;;;;;;;36.90;22.90;;;;;;;13.19;56.72;101553.75;5099201;27;97446;-72
2023/02/17 00:33:33;;;;;;;42.25;22.50;;;;;;;13.05;57.31;101553.31;5100525;27;99226;-73
2023/02/17 00:36:02;;;;;;;40.10;22.17;;;;;;;13.00;57.36;101545.47;5099002;27;99641;-74
2023/02/17 00:38:29;;;;;;;40.03;23.58;;;;;;;13.14;57.07;101564.50;5099553;27;96800;-73
2023/02/17 00:40:55;;;;;;;42.17;23.98;;;;;;;13.07;57.46;101554.09;5102075;27;97148;-72
2023/02/17 00:43:21;;;;;;;38.33;22.70;;;;;;;13.25;56.96;101555.31;5102505;27;99370;-73
2023/02/17 00:45:49;;;;;;;40.72;22.67;;;;;;;12.97;57.25;101550.88;5099823;27;99125;-73
2023/02/17 00:48:16;;;;;;;45.00;23.08;;;;;;;13.11;57.46;101535.38;5100571;27;97107;-74
2023/02/17 00:50:42;;;;;;;37.47;22.30;;;;;;;12.93;57.76;101535.13;5107951;27;96954;-73
2023/02/17 00:53:09;;;;;;;39.00;23.42;;;;;;;12.84;58.39;101533.63;5100347;27;99675;-74
2023/02/17 00:55:35;;;;;;;38.95;22.88;;;;;;;12.76;58.72;101531.22;5102454;27;98829;-73
2023/02/17 00:58:01;;;;;;;38.72;23.15;;;;;;;12.80;58.71;101515.22;5103004;27;98569;-73
2023/02/17 01:00:28;;;;;;;41.45;23.92;;;;;;;12.95;58.42;101514.72;5108358;27;96837;-74
2023/02/17 01:02:55;;;;;;;39.45;24.30;;;;;;;12.84;58.67;101516.84;5102398;27;98974;-74
2023/02/17 01:05:22;;;;;;;39.53;23.52;;;;;;;13.06;58.06;101515.25;5097222;27;99128;-73
2023/02/17 01:07:48;;;;;;;39.83;23.85;;;;;;;13.13;57.74;101512.34;5101744;27;98185;-74
2023/02/17 01:10:16;;;;;;;38.58;23.45;;;;;;;13.18;57.55;101508.69;5103178;27;97052;-73
2023/02/17 01:12:42;;;;;;;39.17;22.85;;;;;;;13.04;58.15;101498.50;5098828;27;99172;-74
2023/02/17 01:15:09;;;;;;;44.75;24.25;;;;;;;13.08;57.98;101502.75;5099371;27;99213;-74
2023/02/17 01:17:35;;;;;;;41.72;23.75;;;;;;;13.20;57.72;101493.53;5097879;27;97657;-74
2023/02/17 01:20:04;;;;;;;35.92;22.00;;;;;;;13.06;57.62;101499.31;5103944;27;96911;-73
2023/02/17 01:22:30;;;;;;;37.15;22.75;;;;;;;12.98;58.09;101494.25;5097979;27;99147;-73
2023/02/17 01:24:57;;;;;;;41.17;23.55;;;;;;;12.84;58.54;101491.19;5106077;27;96789;-73
2023/02/17 01:27:23;;;;;;;41.17;23.45;;;;;;;12.97;58.17;101487.22;5096230;27;96715;-73
2023/02/17 01:29:50;;;;;;;41.28;23.85;;;;;;;12.76;58.43;101485.28;5109381;27;98631;-73
2023/02/17 01:32:16;;;;;;;37.42;22.05;;;;;;;12.78;58.54;101475.50;5099700;27;99318;-74
2023/02/17 01:34:43;;;;;;;43.97;23.25;;;;;;;12.79;58.54;101479.88;5099051;27;97950;-73
2023/02/17 01:37:11;;;;;;;43.03;23.33;;;;;;;12.78;58.48;101476.38;5098091;27;98019;-73
2023/02/17 01:39:37;;;;;;;41.00;23.30;;;;;;;12.99;58.14;101472.13;5101037;27;97735;-76
2023/02/17 01:42:03;;;;;;;47.47;23.95;;;;;;;12.97;57.92;101471.31;5101028;27;99272;-73
2023/02/17 01:44:31;;;;;;;40.60;23.67;;;;;;;12.98;58.09;101462.44;5097590;27;99394;-74
2023/02/17 01:46:58;;;;;;;43.10;22.88;;;;;;;12.98;58.22;101458.91;5097116;27;97115;-74
2023/02/17 01:49:31;;;;;;;38.63;22.42;;;;;;;12.86;58.36;101465.50;5104520;27;96876;-73
2023/02/17 01:52:04;;;;;;;39.35;22.83;;;;;;;12.71;58.93;101463.34;5104288;27;98716;-74
2023/02/17 01:54:38;;;;;;;37.40;22.85;;;;;;;12.56;59.73;101458.53;5098254;27;99427;-74
2023/02/17 01:57:05;;;;;;;39.80;23.23;;;;;;;12.66;60.04;101449.38;5099468;27;97155;-73
2023/02/17 01:59:32;;;;;;;36.17;22.10;;;;;;;12.60;60.28;101454.88;5095662;27;99091;-74
2023/02/17 02:02:03;;;;;;;39.75;22.65;;;;;;;12.48;60.56;101445.53;5103856;27;98886;-72
2023/02/17 02:04:32;;;;;;;43.45;23.92;;;;;;;12.64;60.38;101451.22;5096655;27;98763;-73
2023/02/17 02:07:00;;;;;;;40.42;23.33;;;;;;;12.74;60.39;101440.22;5101085;27;96879;-74
2023/02/17 02:09:32;;;;;;;40.25;24.75;;;;;;;12.62;60.95;101442.44;5098669;27;100769;-74
2023/02/17 02:12:00;;;;;;;45.08;24.63;;;;;;;12.87;60.17;101430.06;5104506;27;97699;-74
2023/02/17 02:14:27;;;;;;;44.60;23.80;;;;;;;12.78;60.65;101433.94;5096086;27;100156;-73
2023/02/17 02:17:04;;;;;;;41.08;24.45;;;;;;;12.94;61.08;101423.66;5104683;27;100210;-73
2023/02/17 02:19:52;;;;;;;42.63;25.52;;;;;;;12.84;61.69;101416.94;5098424;27;97319;-73
2023/02/17 02:22:38;;;;;;;41.00;23.50;;;;;;;12.61;62.75;101408.88;5100700;27;98899;-74
2023/02/17 02:25:21;;;;;;;43.50;24.43;;;;;;;12.66;62.51;101399.00;5099079;27;99127;-74
2023/02/17 02:28:06;;;;;;;45.67;25.77;;;;;;;12.55;63.21;101398.47;5097399;27;96870;-74
2023/02/17 02:30:50;;;;;;;44.05;25.60;;;;;;;12.44;63.93;101384.72;5110197;27;97029;-74
2023/02/17 02:33:26;;;;;;;47.25;25.40;;;;;;;12.50;63.92;101379.22;5105275;27;101373;-73
2023/02/17 02:35:59;;;;;;;44.85;25.35;;;;;;;12.32;64.74;101372.75;5111213;27;98799;-73
2023/02/17 02:38:31;;;;;;;51.92;28.05;;;;;;;12.54;64.00;101378.19;5098495;27;96775;-74
2023/02/17 02:41:04;;;;;;;44.45;25.35;;;;;;;12.66;63.35;101378.66;5100304;27;96835;-73
2023/02/17 02:43:31;;;;;;;47.83;25.98;;;;;;;12.51;64.00;101373.00;5104791;27;101122;-74
2023/02/17 02:45:57;;;;;;;43.92;25.55;;;;;;;12.55;63.74;101377.25;5103363;27;98906;-73
2023/02/17 02:48:25;;;;;;;46.13;25.92;;;;;;;12.62;63.73;101366.41;5108454;27;98358;-73
2023/02/17 02:51:10;;;;;;;45.72;26.85;;;;;;;12.48;64.47;101367.78;5106127;27;97659;-73
2023/02/17 02:54:00;;;;;;;46.25;26.65;;;;;;;12.65;64.18;101357.50;5103665;27;98280;-73
2023/02/17 02:56:35;;;;;;;46.00;25.80;;;;;;;12.70;64.29;101355.53;5089112;27;98905;-73
2023/02/17 02:59:13;;;;;;;44.53;26.02;;;;;;;12.61;64.09;101354.06;5109681;27;96682;-74
2023/02/17 03:01:50;;;;;;;46.80;26.27;;;;;;;12.48;64.65;101350.09;5102425;27;97761;-73
2023/02/17 03:04:25;;;;;;;45.72;26.90;;;;;;;12.62;64.32;101346.97;5098257;27;98964;-74
2023/02/17 03:06:56;;;;;;;44.13;25.23;;;;;;;12.42;65.09;101328.22;5111132;27;99260;-74
2023/02/17 03:09:25;;;;;;;48.38;27.45;;;;;;;12.42;65.06;101325.59;5104277;27;97251;-73
2023/02/17 03:11:54;;;;;;;49.25;27.42;;;;;;;12.31;66.02;101325.97;5109945;27;96923;-72
2023/02/17 03:14:22;;;;;;;48.88;27.52;;;;;;;12.26;65.90;101323.47;5102799;27;98829;-74
2023/02/17 03:16:49;;;;;;;51.40;27.00;;;;;;;12.46;65.23;101317.50;5103892;27;98749;-75
2023/02/17 03:19:20;;;;;;;49.75;26.30;;;;;;;12.31;65.54;101318.00;5106293;27;96709;-73
2023/02/17 03:21:50;;;;;;;44.78;25.75;;;;;;;12.33;65.63;101311.75;5100996;27;97787;-74
2023/02/17 03:24:16;;;;;;;48.70;27.85;;;;;;;12.45;65.63;101317.53;5102144;27;99354;-76
2023/02/17 03:26:43;;;;;;;49.72;26.13;;;;;;;12.40;65.81;101306.25;5099349;27;100251;-73
2023/02/17 03:29:09;;;;;;;46.25;27.02;;;;;;;12.10;66.88;101316.06;5097911;27;96791;-72
2023/02/17 03:31:36;;;;;;;50.63;26.98;;;;;;;12.16;66.44;101315.84;5102618;27;98065;-77
2023/02/17 03:34:03;;;;;;;48.17;27.08;;;;;;;12.08;67.24;101323.22;5098189;27;98953;-73
2023/02/17 03:36:31;;;;;;;53.05;28.75;;;;;;;12.09;67.11;101322.28;5102384;27;98778;-73
2023/02/17 03:38:58;;;;;;;51.70;28.15;;;;;;;12.40;66.17;101327.44;5105545;27;97096;-72
2023/02/17 03:41:25;;;;;;;51.13;28.52;;;;;;;12.26;66.23;101328.78;5108748;27;97336;-73
2023/02/17 03:43:51;;;;;;;48.85;27.30;;;;;;;12.36;66.36;101324.00;5097792;27;98580;-73
2023/02/17 03:46:18;;;;;;;52.80;27.30;;;;;;;12.40;66.19;101317.72;5101457;27;98923;-73
2023/02/17 03:48:45;;;;;;;45.40;27.23;;;;;;;12.33;66.37;101317.06;5101004;27;97249;-73
2023/02/17 03:51:13;;;;;;;48.28;26.70;;;;;;;12.46;65.91;101316.63;5106540;27;99417;-72
2023/02/17 03:53:41;;;;;;;50.38;27.50;;;;;;;12.55;66.15;101308.34;5102287;27;99085;-71
2023/02/17 03:56:08;;;;;;;48.40;27.45;;;;;;;12.61;65.73;101305.47;5103392;27;101763;-72
2023/02/17 03:58:35;;;;;;;49.92;28.58;;;;;;;12.55;65.98;101300.38;5104752;27;97382;-72
2023/02/17 04:01:01;;;;;;;47.88;27.40;;;;;;;12.44;66.58;101305.19;5108841;27;97064;-72
2023/02/17 04:03:28;;;;;;;51.47;28.00;;;;;;;12.52;66.10;101297.88;5099953;27;99239;-72
2023/02/17 04:05:54;;;;;;;49.03;28.15;;;;;;;12.52;66.38;101295.22;5103503;27;98840;-72
2023/02/17 04:08:21;;;;;;;49.83;27.40;;;;;;;12.56;66.50;101294.16;5102456;27;97300;-71
2023/02/17 04:10:52;;;;;;;48.78;26.73;;;;;;;12.55;66.75;101287.13;5102386;27;97023;-71
2023/02/17 04:13:18;;;;;;;47.88;27.13;;;;;;;12.49;67.06;101293.53;5105270;27;101023;-71
2023/02/17 04:15:45;;;;;;;46.22;25.83;;;;;;;12.48;67.32;101285.63;5105922;27;99063;-71
2023/02/17 04:18:11;;;;;;;49.92;27.17;;;;;;;12.41;67.65;101281.44;5105153;27;97386;-71
2023/02/17 04:20:38;;;;;;;54.45;27.95;;;;;;;12.40;67.71;101282.38;5105281;27;97351;-72
2023/02/17 04:23:04;;;;;;;47.00;26.63;;;;;;;12.45;67.77;101281.31;5102872;27;99318;-72
2023/02/17 04:25:33;;;;;;;49.50;27.30;;;;;;;12.48;67.44;101283.84;5102704;27;98201;-73
2023/02/17 04:28:01;;;;;;;42.20;24.15;;;;;;;12.47;67.90;101281.25;5102457;27;97303;-72
2023/02/17 04:30:28;;;;;;;42.50;25.45;;;;;;;12.41;68.20;101270.84;5110426;27;96782;-72
2023/02/17 04:32:54;;;;;;;49.47;26.08;;;;;;;12.40;68.26;101269.13;5099541;27;99229;-72
2023/02/17 04:35:21;;;;;;;38.70;23.95;;;;;;;12.54;68.13;101254.47;5109519;27;99262;-71
2023/02/17 04:37:47;;;;;;;42.22;25.38;;;;;;;12.58;67.94;101247.28;5104607;27;97329;-72
2023/02/17 04:40:14;;;;;;;40.28;24.25;;;;;;;12.28;68.94;101252.72;5105741;27;96780;-70
2023/02/17 04:42:40;;;;;;;40.90;24.02;;;;;;;12.37;69.14;101260.38;5100440;27;99370;-71
2023/02/17 04:45:09;;;;;;;44.35;24.45;;;;;;;12.48;68.38;101265.28;5108521;27;98864;-73
2023/02/17 04:47:36;;;;;;;42.42;24.55;;;;;;;12.45;68.91;101268.06;5103211;27;96831;-72
2023/02/17 04:50:02;;;;;;;38.92;22.85;;;;;;;12.43;68.84;101269.00;5100619;27;97030;-72
2023/02/17 04:52:29;;;;;;;40.88;24.85;;;;;;;12.43;69.34;101256.63;5101882;27;100706;-72
2023/02/17 04:54:55;;;;;;;38.05;23.00;;;;;;;12.37;69.53;101256.84;5103612;27;99238;-74
2023/02/17 04:57:22;;;;;;;37.88;22.50;;;;;;;12.48;69.61;101243.19;5100134;27;97443;-72
2023/02/17 04:59:49;;;;;;;36.67;21.40;;;;;;;12.44;69.33;101245.13;5106415;27;96862;-72
2023/02/17 05:02:16;;;;;;;39.70;22.73;;;;;;;12.46;69.34;101232.69;5103036;27;99006;-71
2023/02/17 05:04:43;;;;;;;36.40;21.85;;;;;;;12.51;69.59;101235.16;5102675;27;98828;-71
2023/02/17 05:07:09;;;;;;;39.28;23.25;;;;;;;12.34;70.07;101252.50;5100229;27;96877;-73
2023/02/17 05:09:36;;;;;;;46.75;24.02;;;;;;;12.22;70.32;101242.34;5105908;27;96839;-71
2023/02/17 05:12:04;;;;;;;41.03;23.52;;;;;;;12.53;69.32;101239.50;5106489;27;98825;-72
2023/02/17 05:14:30;;;;;;;42.55;23.65;;;;;;;12.34;69.97;101238.38;5106832;27;99170;-71
2023/02/17 05:16:57;;;;;;;42.05;23.35;;;;;;;12.35;69.80;101230.38;5101793;27;97549;-70
2023/02/17 05:19:25;;;;;;;37.72;22.83;;;;;;;12.40;69.88;101235.56;5104747;27;97577;-71
2023/02/17 05:21:51;;;;;;;40.75;23.70;;;;;;;12.31;70.00;101231.44;5096714;27;97670;-74
2023/02/17 05:24:18;;;;;;;40.10;24.40;;;;;;;12.47;69.92;101234.38;5100701;27;98781;-72
2023/02/17 05:26:44;;;;;;;40.58;24.02;;;;;;;12.42;69.71;101222.22;5100342;27;97014;-71
2023/02/17 05:29:11;;;;;;;44.22;23.70;;;;;;;12.43;69.30;101226.59;5099234;27;97385;-71
2023/02/17 05:31:37;;;;;;;40.92;24.13;;;;;;;12.55;69.17;101229.69;5095865;27;100787;-71
2023/02/17 05:34:03;;;;;;;41.25;24.50;;;;;;;12.72;68.57;101214.03;5099644;27;98814;-72
2023/02/17 05:36:31;;;;;;;43.38;23.85;;;;;;;12.62;68.60;101214.41;5103023;27;96772;-71
2023/02/17 05:38:58;;;;;;;39.88;23.13;;;;;;;12.56;69.06;101214.66;5100822;27;98577;-71
2023/02/17 05:41:24;;;;;;;41.80;24.23;;;;;;;12.61;68.95;101212.69;5105045;27;99319;-72
2023/02/17 05:43:50;;;;;;;50.42;24.50;;;;;;;12.60;68.85;101211.81;5102756;27;99137;-72
2023/02/17 05:46:17;;;;;;;43.67;23.33;;;;;;;12.53;68.73;101204.16;5106229;27;97257;-74
2023/02/17 05:48:44;;;;;;;43.75;24.70;;;;;;;12.56;68.88;101204.03;5096796;27;98793;-71
2023/02/17 05:51:12;;;;;;;41.35;23.73;;;;;;;12.51;69.33;101211.31;5095901;27;98939;-72
2023/02/17 05:53:40;;;;;;;41.47;24.55;;;;;;;12.47;69.43;101212.34;5098382;27;98910;-72
2023/02/17 05:56:06;;;;;;;41.85;24.40;;;;;;;12.52;69.09;101213.91;5103344;27;97153;-72
2023/02/17 05:58:33;;;;;;;41.25;23.67;;;;;;;12.42;69.23;101206.31;5098912;27;97155;-71
2023/02/17 06:00:59;;;;;;;39.83;23.40;;;;;;;12.56;68.84;101204.03;5106615;27;98805;-71
2023/02/17 06:03:25;;;;;;;39.85;23.75;;;;;;;12.34;69.66;101202.16;5099543;27;99140;-71
2023/02/17 06:05:52;;;;;;;40.50;24.38;;;;;;;12.49;69.38;101211.34;5098692;27;97239;-71
2023/02/17 06:08:18;;;;;;;44.25;24.50;;;;;;;12.56;69.25;101204.91;5103403;27;97114;-71
2023/02/17 06:10:46;;;;;;;39.92;24.13;;;;;;;12.51;68.75;101190.97;5103773;27;97853;-71
2023/02/17 06:13:13;;;;;;;44.58;24.08;;;;;;;12.67;68.41;101189.47;5100402;27;98962;-72
2023/02/17 06:15:39;;;;;;;41.22;23.73;;;;;;;12.53;68.58;101183.84;5094771;27;98699;-73
2023/02/17 06:18:05;;;;;;;41.60;24.08;;;;;;;12.54;68.96;101187.31;5093007;27;97311;-71
2023/02/17 06:20:32;;;;;;;44.80;24.15;;;;;;;12.45;69.04;101188.53;5099251;27;99697;-73
2023/02/17 06:22:58;;;;;;;40.33;23.02;;;;;;;12.62;68.42;101178.16;5101687;27;97674;-73
2023/02/17 06:25:25;;;;;;;40.97;23.25;;;;;;;12.68;68.11;101171.78;5104643;27;97747;-72
2023/02/17 06:27:53;;;;;;;39.75;22.88;;;;;;;12.69;67.91;101173.50;5096860;27;97288;-72
2023/02/17 06:30:20;;;;;;;46.15;22.77;;;;;;;12.63;68.24;101163.13;5093360;27;99509;-72
2023/02/17 06:32:46;;;;;;;41.05;22.90;;;;;;;12.64;68.10;101176.34;5098488;27;98757;-73
2023/02/17 06:35:13;;;;;;;40.30;23.50;;;;;;;12.57;68.71;101173.97;5099030;27;96778;-73
2023/02/17 06:37:39;;;;;;;38.25;22.05;;;;;;;12.76;67.82;101175.88;5108076;27;96887;-73
2023/02/17 06:40:07;;;;;;;38.15;21.95;;;;;;;12.83;67.54;101173.00;5096197;27;98649;-71
2023/02/17 06:42:34;;;;;;;41.75;22.70;;;;;;;12.61;67.84;101165.84;5105652;27;98870;-72
2023/02/17 06:45:04;;;;;;;42.58;23.60;;;;;;;12.87;67.17;101171.94;5099274;27;97915;-72
2023/02/17 06:47:31;;;;;;;38.95;22.15;;;;;;;12.96;67.16;101174.25;5101261;27;96859;-73
2023/02/17 06:49:57;;;;;;;39.75;21.92;;;;;;;12.96;66.98;101169.81;5102310;27;99222;-72
2023/02/17 06:52:24;;;;;;;37.78;22.42;;;;;;;12.91;67.19;101169.13;5102221;27;99047;-72
2023/02/17 06:54:50;;;;;;;39.08;21.77;;;;;;;12.95;66.91;101170.72;5104310;27;97293;-70
2023/02/17 06:57:17;;;;;;;35.25;21.58;;;;;;;13.10;66.38;101159.53;5097954;27;96780;-71
2023/02/17 06:59:44;;;;;;;38.78;22.70;;;;;;;13.12;66.18;101163.03;5104375;27;101915;-70
2023/02/17 07:02:13;;;;;;;34.85;21.30;;;;;;;13.24;65.87;101161.69;5091707;27;99970;-71
2023/02/17 07:04:40;;;;;;;32.83;19.73;;;;;;;13.25;65.68;101152.78;5092511;27;97238;-73
2023/02/17 07:07:07;;;;;;;35.42;20.38;;;;;;;13.33;65.90;101153.31;5104149;27;97491;-71
2023/02/17 07:09:34;;;;;;;35.45;21.15;;;;;;;13.25;65.92;101143.97;5099975;27;101867;-71
2023/02/17 07:12:01;;;;;;;33.30;20.08;;;;;;;13.23;65.78;101144.03;5103714;27;99063;-73
2023/02/17 07:14:27;;;;;;;33.08;20.10;;;;;;;13.27;65.66;101147.41;5103798;27;96791;-72
2023/02/17 07:16:54;;;;;;;30.50;18.90;;;;;;;13.20;66.12;101148.56;5099987;27;98777;-72
2023/02/17 07:19:22;;;;;;;30.25;18.58;;;;;;;13.26;65.64;101143.03;5103226;27;99071;-71
2023/02/17 07:21:48;;;;;;;28.90;18.70;;;;;;;13.27;65.87;101142.97;5100645;27;98851;-71
2023/02/17 07:24:14;;;;;;;33.67;21.55;;;;;;;13.28;66.06;101144.69;5094876;27;98344;-71
2023/02/17 07:26:41;;;;;;;31.23;19.80;;;;;;;13.26;66.26;101143.88;5099026;27;97428;-71
2023/02/17 07:29:08;;;;;;;29.67;18.85;;;;;;;13.35;65.78;101137.34;5106367;27;97831;-72
2023/02/17 07:31:35;;;;;;;33.95;18.45;;;;;;;13.23;66.33;101145.81;5103456;27;98912;-71
2023/02/17 07:34:02;;;;;;;27.95;17.80;;;;;;;13.37;66.01;101143.47;5100236;27;97169;-73
2023/02/17 07:36:31;;;;;;;30.50;18.50;;;;;;;13.57;65.28;101135.56;5097035;27;99508;-71
2023/02/17 07:38:59;;;;;;;24.58;16.75;;;;;;;13.43;65.61;101130.81;5098886;27;100279;-70
2023/02/17 07:41:27;;;;;;;26.67;17.25;;;;;;;13.51;65.45;101138.47;5098315;27;98816;-71
2023/02/17 07:43:55;;;;;;;27.35;17.23;;;;;;;13.43;65.27;101130.81;5096418;27;97185;-71
2023/02/17 07:46:22;;;;;;;26.83;16.60;;;;;;;13.44;65.52;101126.38;5104628;27;97525;-72
2023/02/17 07:48:48;;;;;;;27.10;16.25;;;;;;;13.32;66.10;101121.56;5102766;27;98795;-72
2023/02/17 07:51:17;;;;;;;24.70;16.55;;;;;;;13.41;65.96;101122.03;5107629;27;98016;-70
2023/02/17 07:53:46;;;;;;;26.55;16.90;;;;;;;13.68;65.28;101114.72;5102012;27;97299;-71
2023/02/17 07:56:15;;;;;;;24.27;15.60;;;;;;;13.62;65.09;101109.66;5104503;27;97282;-70
2023/02/17 07:58:43;;;;;;;23.95;14.52;;;;;;;13.39;65.75;101118.56;5108741;27;98677;-71
2023/02/17 08:01:12;;;;;;;22.77;15.70;;;;;;;13.45;65.80;101106.88;5109574;27;99291;-71
2023/02/17 08:03:38;;;;;;;23.10;15.68;;;;;;;13.48;66.01;101110.22;5110384;27;97357;-70
2023/02/17 08:06:09;;;;;;;22.38;14.02;;;;;;;13.57;65.57;101111.66;5106443;27;96964;-71
2023/02/17 08:14:05;;;;;;;19.77;14.10;;;;;;;13.64;65.55;101115.78;5103035;27;96759;-72
2023/02/17 08:16:34;;;;;;;21.58;14.02;;;;;;;13.67;65.41;101117.41;5102914;27;97298;-72
2023/02/17 08:19:00;;;;;;;20.63;14.45;;;;;;;13.66;65.54;101115.69;5105819;27;98947;-71
2023/02/17 08:21:27;;;;;;;21.92;13.95;;;;;;;13.80;64.92;101115.97;5110148;27;103097;-72
2023/02/17 08:23:54;;;;;;;20.77;14.15;;;;;;;13.65;65.58;101117.50;5108624;27;97608;-70
2023/02/17 08:26:22;;;;;;;23.02;14.45;;;;;;;13.90;65.27;101109.34;5102866;27;97580;-71
2023/02/17 08:28:51;;;;;;;18.90;13.07;;;;;;;13.86;65.10;101111.25;5103715;27;100729;-71
2023/02/17 08:31:20;;;;;;;18.92;14.02;;;;;;;13.65;66.03;101101.59;5103208;27;99000;-71
2023/02/17 08:33:52;;;;;;;19.38;13.35;;;;;;;13.51;67.07;101102.16;5103983;27;97117;-74
2023/02/17 08:36:21;;;;;;;19.27;13.02;;;;;;;13.46;67.54;101097.94;5104271;27;96888;-72
2023/02/17 08:38:49;;;;;;;23.00;13.30;;;;;;;13.47;67.85;101102.31;5099995;27;101487;-71
2023/02/17 08:41:18;;;;;;;20.65;13.32;;;;;;;13.29;68.99;101105.75;5101622;27;98788;-70
2023/02/17 08:43:46;;;;;;;21.77;13.50;;;;;;;13.30;69.03;101094.22;5106514;27;96919;-70
2023/02/17 08:46:16;;;;;;;22.10;14.30;;;;;;;13.45;69.13;101090.94;5108087;27;97691;-72
2023/02/17 08:48:43;;;;;;;19.45;13.48;;;;;;;13.50;68.83;101099.56;5108429;27;99879;-70
2023/02/17 08:51:12;;;;;;;21.02;14.50;;;;;;;13.56;68.83;101092.19;5108949;27;99067;-70
2023/02/17 08:53:39;;;;;;;21.48;15.07;;;;;;;13.61;68.89;101088.47;5109780;27;97231;-71
2023/02/17 08:56:06;;;;;;;19.58;14.38;;;;;;;13.73;68.63;101079.97;5108127;27;97209;-71
2023/02/17 08:58:32;;;;;;;20.48;14.05;;;;;;;13.73;68.52;101080.84;5101986;27;98613;-72
2023/02/17 09:01:01;;;;;;;19.42;13.85;;;;;;;13.60;69.36;101073.47;5100121;27;99242;-71
2023/02/17 09:03:27;;;;;;;22.55;13.88;;;;;;;13.74;68.89;101071.09;5103143;27;97308;-71
2023/02/17 09:05:54;;;;;;;20.70;13.70;;;;;;;13.61;69.31;101060.13;5100595;27;96982;-71
2023/02/17 09:08:20;;;;;;;22.45;14.80;;;;;;;13.79;69.02;101059.31;5100527;27;99030;-71
2023/02/17 09:10:47;;;;;;;20.52;13.82;;;;;;;13.98;68.23;101049.63;5107429;27;98343;-72
2023/02/17 09:13:13;;;;;;;18.63;13.65;;;;;;;13.89;68.21;101038.56;5107866;27;97941;-72
2023/02/17 09:15:40;;;;;;;23.92;14.57;;;;;;;13.92;68.54;101038.41;5109052;27;96909;-71
2023/02/17 09:18:08;;;;;;;21.30;13.73;;;;;;;13.88;68.84;101031.50;5104079;27;99080;-71
2023/02/17 09:20:35;;;;;;;20.52;14.25;;;;;;;13.79;69.33;101035.41;5102805;27;99216;-72
2023/02/17 09:23:01;;;;;;;21.08;14.45;;;;;;;13.78;69.40;101023.09;5106857;27;97359;-71
2023/02/17 09:25:28;;;;;;;20.85;14.77;;;;;;;13.85;69.23;101027.19;5104477;27;96848;-71
2023/02/17 09:27:54;;;;;;;18.65;13.68;;;;;;;13.67;69.97;101022.69;5107828;27;98943;-70
2023/02/17 09:30:22;;;;;;;23.70;14.95;;;;;;;13.68;70.69;101012.94;5104994;27;99059;-72
2023/02/17 09:32:48;;;;;;;21.58;15.60;;;;;;;13.80;70.18;101007.94;5104876;27;96924;-73
2023/02/17 09:35:17;;;;;;;22.77;15.13;;;;;;;13.91;69.76;101008.31;5096484;27;97411;-73
2023/02/17 09:37:44;;;;;;;22.65;14.40;;;;;;;14.09;69.20;101009.28;5100601;27;99009;-72
2023/02/17 09:40:17;;;;;;;22.30;15.50;;;;;;;13.92;69.75;101001.22;5104076;27;98907;-72
2023/02/17 09:42:43;;;;;;;19.83;14.88;;;;;;;13.98;69.65;100995.63;5108365;27;96897;-72
2023/02/17 09:45:14;;;;;;;25.13;15.38;;;;;;;14.18;68.97;100990.25;5102863;27;97231;-71
2023/02/17 09:47:44;;;;;;;22.85;15.45;;;;;;;14.01;69.08;100990.16;5107313;27;99116;-72
2023/02/17 09:50:13;;;;;;;23.40;15.50;;;;;;;13.98;69.58;100978.84;5101932;27;99077;-72
2023/02/17 09:52:47;;;;;;;22.50;15.98;;;;;;;13.94;69.60;100984.28;5106474;27;98018;-72
2023/02/17 09:55:19;;;;;;;28.02;16.33;;;;;;;14.10;69.27;100976.47;5101278;27;97196;-70
2023/02/17 09:57:53;;;;;;;22.42;14.52;;;;;;;13.97;69.16;100970.00;5102192;27;101183;-72
2023/02/17 10:00:25;;;;;;;19.85;13.90;;;;;;;13.87;69.40;100982.81;5104187;27;101453;-72
2023/02/17 10:02:57;;;;;;;20.73;15.40;;;;;;;13.71;70.47;100971.19;5101083;27;98209;-70
2023/02/17 10:05:29;;;;;;;24.85;15.77;;;;;;;13.63;71.21;100975.09;5104798;27;96828;-72
2023/02/17 10:08:03;;;;;;;22.80;15.82;;;;;;;13.95;70.26;100970.06;5104019;27;98268;-71
2023/02/17 10:10:34;;;;;;;24.85;15.68;;;;;;;13.96;69.93;100962.97;5106352;27;99291;-71
2023/02/17 10:13:03;;;;;;;22.83;16.00;;;;;;;13.68;70.84;100965.13;5108598;27;96958;-72
2023/02/17 10:15:35;;;;;;;24.60;16.50;;;;;;;13.86;70.74;100949.22;5105788;27;96969;-71
2023/02/17 10:18:10;;;;;;;23.33;15.98;;;;;;;13.87;70.57;100956.25;5109563;27;98906;-72
2023/02/17 10:20:42;;;;;;;26.08;16.48;;;;;;;13.72;71.31;100946.31;5106378;27;98833;-74
2023/02/17 10:23:13;;;;;;;26.40;15.77;;;;;;;13.89;70.78;100949.09;5107427;27;96975;-71
2023/02/17 10:25:56;;;;;;;28.55;17.45;;;;;;;13.92;71.04;100935.66;5106622;27;96876;-73
2023/02/17 10:28:37;;;;;;;23.70;16.00;;;;;;;13.91;70.91;100925.13;5102696;27;101850;-73
2023/02/17 10:31:08;;;;;;;22.58;16.02;;;;;;;13.87;71.21;100923.53;5097202;27;98928;-73
2023/02/17 10:33:36;;;;;;;23.33;15.88;;;;;;;13.85;71.04;100912.09;5107944;27;96968;-72
2023/02/17 10:36:12;;;;;;;21.35;15.32;;;;;;;13.74;71.19;100896.66;5100707;27;97203;-71
2023/02/17 10:38:49;;;;;;;26.73;17.20;;;;;;;13.98;70.74;100900.84;5102038;27;100659;-70
2023/02/17 10:41:26;;;;;;;22.27;16.20;;;;;;;14.03;71.25;100902.44;5103834;27;98015;-73
2023/02/17 10:43:54;;;;;;;21.25;15.75;;;;;;;14.17;70.00;100889.34;5104680;27;96692;-72
2023/02/17 10:46:29;;;;;;;22.17;15.65;;;;;;;13.94;70.28;100896.59;5106822;27;97056;-71
2023/02/17 10:48:57;;;;;;;24.05;15.07;;;;;;;13.92;71.06;100887.84;5097585;27;98556;-72
2023/02/17 10:51:27;;;;;;;23.92;15.13;;;;;;;13.90;70.47;100880.91;5110473;27;98756;-73
2023/02/17 10:54:00;;;;;;;24.30;16.23;;;;;;;13.87;71.15;100876.56;5109284;27;97220;-75
2023/02/17 10:56:32;;;;;;;21.90;16.40;;;;;;;14.10;70.58;100877.28;5106525;27;97258;-72
2023/02/17 10:59:05;;;;;;;23.83;14.88;;;;;;;14.10;70.37;100874.63;5113411;27;98880;-71
2023/02/17 11:01:33;;;;;;;22.73;15.77;;;;;;;14.24;69.63;100859.72;5103089;27;98182;-74
2023/02/17 11:04:01;;;;;;;21.55;14.75;;;;;;;14.09;69.90;100870.25;5101392;27;98088;-74
2023/02/17 11:06:30;;;;;;;21.00;14.93;;;;;;;14.21;69.49;100845.75;5102772;27;98496;-72
2023/02/17 11:09:00;;;;;;;21.45;15.15;;;;;;;14.05;70.03;100832.31;5103994;27;98870;-72
2023/02/17 11:11:29;;;;;;;26.27;15.48;;;;;;;13.88;70.97;100824.31;5110191;27;99375;-71
2023/02/17 11:14:03;;;;;;;23.42;14.65;;;;;;;14.22;69.69;100818.22;5110570;27;98565;-71
2023/02/17 11:16:34;;;;;;;21.58;14.55;;;;;;;14.19;69.85;100813.91;5107853;27;96890;-71
2023/02/17 11:19:01;;;;;;;22.35;15.25;;;;;;;14.21;69.59;100814.72;5105764;27;99254;-71
2023/02/17 11:21:29;;;;;;;24.42;14.80;;;;;;;14.08;70.23;100810.06;5111876;27;100177;-72